Etusivu
METAR-TAF:

METAR-TAF

Lentoasemat :

Borlänge, Ruotsi

Leveyspiiri: 60-26N, Pituuspiiri: 015-31E, korkeus merenpinnasta: 145 m

Tämänhetkinen sää

Tämä raportti tehtiin 49 minuuttia sitten, kello 17.20 UTC
Tuuli 3 kn lounaasta
Lämpötila 5°C
Kosteus 100%
Ilmanpaine 1017 hPa
Näkyvyys 10 km tai enemmän

METAR: ESSD 211720Z AUTO 22003KT 9999 BKN008/// OVC013/// 05/05 Q1017

Aika: 20:09 (18:09 UTC)

Sääennuste

Tämä raportti tehtiin 4 tuntia ja 45 minuuttia sitten, kello 13.24 UTC
Ennuste voimassa 21. päivästä klo 13 UTC - 21. päivään klo 15 UTC
Tuuli 3 kn lounaasta
Näkyvyys 10 km tai enemmän
Hajanaisia pilviä 700 ft:n korkeudessa
Pilvistä 1500 ft:n korkeudessa
Todennäköisyys 40%
21. päivästä klo 13 UTC - 21. päivään klo 15 UTC
Hajonneita pilviä 600 ft:n korkeudessa

TAF: ESSD 211324Z 2113/2115 23003KT 9999 SCT007 OVC015 PROB40 2113/2115 BKN006

Säähavainnot ja -ennusteet yli 4000 lentoasemalta (METAR- ja TAF-raportit).

Käytössä olevat sääasemat on merkitty karttaan keltaisilla ja punaisilla pisteillä.

Aseta hiiri pisteen päälle nähdäksesi sääaseman nimen.

Klikkaa sitten nähdäksesi säähavainnot ja -ennusteet.

Kartan vaihtaminen: klikkaa mustalla rastilla varustettuja vihreitä pisteitä, niin voit zoomata sisään; viivalla varustettua vihreää pistettä, niin voit zoomata ulos tai vihreitä nuolia, niin pääset viereisille kartoille.


METAR-TAF: